createdAt,value
2023-03-24T00:01:11.845Z,2.73
2023-03-24T00:03:39.056Z,2.33
2023-03-24T00:06:07.164Z,2.43
2023-03-24T00:08:36.636Z,1.97
2023-03-24T00:11:07.545Z,2.60
2023-03-24T00:13:35.927Z,2.53
2023-03-24T00:16:05.856Z,2.03
2023-03-24T00:18:33.052Z,2.97
2023-03-24T00:21:01.512Z,2.37
2023-03-24T00:23:29.973Z,2.30
2023-03-24T00:26:08.867Z,2.20
2023-03-24T00:28:37.499Z,2.57
2023-03-24T00:31:07.413Z,2.70
2023-03-24T00:33:34.289Z,2.30
2023-03-24T00:36:01.941Z,2.20
2023-03-24T00:38:29.641Z,2.30
2023-03-24T00:40:57.047Z,2.10
2023-03-24T00:43:24.312Z,1.93
2023-03-24T00:45:57.791Z,2.17
2023-03-24T00:48:29.072Z,2.00
2023-03-24T00:50:57.593Z,2.17
2023-03-24T00:53:24.924Z,1.53
2023-03-24T00:55:52.495Z,2.00
2023-03-24T00:58:19.888Z,2.10
2023-03-24T01:00:48.351Z,2.03
2023-03-24T01:03:16.640Z,2.07
2023-03-24T01:05:45.981Z,2.40
2023-03-24T01:08:13.204Z,1.83
2023-03-24T01:10:52.239Z,2.07
2023-03-24T01:13:20.846Z,1.90
2023-03-24T01:15:50.096Z,2.10
2023-03-24T01:18:18.079Z,2.10
2023-03-24T01:20:48.190Z,2.63
2023-03-24T01:23:17.124Z,2.30
2023-03-24T01:25:44.556Z,2.27
2023-03-24T01:28:12.204Z,2.07
2023-03-24T01:30:40.165Z,1.77
2023-03-24T01:33:07.862Z,2.40
2023-03-24T01:35:35.491Z,2.30
2023-03-24T01:38:07.947Z,1.60
2023-03-24T01:40:43.084Z,2.30
2023-03-24T01:43:17.782Z,2.20
2023-03-24T01:46:06.217Z,2.10
2023-03-24T01:51:26.644Z,2.20
2023-03-24T01:54:03.073Z,1.67
2023-03-24T01:56:34.332Z,2.33
2023-03-24T01:59:09.640Z,2.40
2023-03-24T02:01:39.339Z,2.10
2023-03-24T02:04:08.512Z,2.30
2023-03-24T02:06:38.066Z,2.00
2023-03-24T02:09:08.387Z,1.63
2023-03-24T02:11:37.701Z,2.60
2023-03-24T02:14:08.443Z,2.87
2023-03-24T02:17:06.325Z,2.67
2023-03-24T02:20:04.903Z,2.23
2023-03-24T02:23:17.349Z,2.37
2023-03-24T02:26:33.833Z,1.93
2023-03-24T02:29:26.151Z,2.23
2023-03-24T02:32:27.137Z,2.20
2023-03-24T02:35:29.040Z,1.90
2023-03-24T02:38:18.589Z,2.40
2023-03-24T02:40:52.979Z,2.10
2023-03-24T02:43:37.787Z,2.13
2023-03-24T02:46:15.365Z,1.83
2023-03-24T02:48:57.782Z,1.97
2023-03-24T02:51:30.749Z,2.20
2023-03-24T02:54:07.806Z,2.57
2023-03-24T02:56:39.279Z,2.50
2023-03-24T02:59:09.175Z,1.90
2023-03-24T03:01:42.022Z,2.53
2023-03-24T03:04:11.338Z,2.00
2023-03-24T03:06:40.928Z,2.20
2023-03-24T03:09:11.959Z,2.60
2023-03-24T03:11:43.174Z,2.90
2023-03-24T03:14:13.356Z,3.20
2023-03-24T03:16:46.491Z,3.17
2023-03-24T03:19:18.195Z,2.70
2023-03-24T03:21:47.752Z,3.17
2023-03-24T03:24:18.143Z,2.63
2023-03-24T03:26:48.318Z,3.07
2023-03-24T03:29:19.808Z,2.87
2023-03-24T03:31:51.060Z,2.97
2023-03-24T03:34:25.005Z,3.20
2023-03-24T03:36:57.661Z,2.70
2023-03-24T03:39:29.757Z,2.70
2023-03-24T03:41:58.635Z,3.00
2023-03-24T03:44:25.647Z,3.70
2023-03-24T03:46:53.048Z,3.17
2023-03-24T03:49:19.991Z,3.40
2023-03-24T03:51:46.948Z,3.53
2023-03-24T03:54:16.185Z,3.90
2023-03-24T03:56:43.333Z,2.97
2023-03-24T03:59:24.907Z,3.10
2023-03-24T04:01:52.153Z,3.20
2023-03-24T04:04:37.586Z,3.20
2023-03-24T04:07:13.446Z,3.40
2023-03-24T04:09:52.631Z,3.57
2023-03-24T04:12:44.555Z,2.50
2023-03-24T04:15:36.344Z,3.00
2023-03-24T04:18:30.302Z,2.60
2023-03-24T04:21:11.069Z,3.80
2023-03-24T04:23:46.128Z,3.03
2023-03-24T04:26:22.848Z,3.60
2023-03-24T04:29:14.227Z,3.10
2023-03-24T04:31:48.286Z,3.17
2023-03-24T04:34:21.441Z,3.00
2023-03-24T04:36:51.748Z,3.27
2023-03-24T04:39:22.465Z,3.17
2023-03-24T04:41:49.532Z,2.33
2023-03-24T04:44:18.127Z,2.30
2023-03-24T04:46:45.911Z,3.27
2023-03-24T04:49:12.798Z,3.57
2023-03-24T04:51:40.372Z,2.73
2023-03-24T04:54:07.521Z,3.47
2023-03-24T04:56:41.086Z,3.90
2023-03-24T04:59:11.628Z,3.30
2023-03-24T05:01:40.735Z,3.83
2023-03-24T05:04:09.796Z,3.80
2023-03-24T05:06:37.110Z,3.37
2023-03-24T05:09:06.801Z,3.20
2023-03-24T05:11:36.166Z,4.03
2023-03-24T05:14:05.125Z,4.00
2023-03-24T05:17:14.716Z,3.67
2023-03-24T05:19:44.224Z,3.40
2023-03-24T05:22:11.529Z,3.50
2023-03-24T05:24:38.893Z,3.27
2023-03-24T05:27:06.203Z,3.60
2023-03-24T05:29:34.550Z,3.87
2023-03-24T05:32:03.414Z,3.73
2023-03-24T05:34:33.734Z,3.03
2023-03-24T05:37:02.662Z,3.77
2023-03-24T05:39:29.973Z,2.87
2023-03-24T05:41:57.518Z,3.00
2023-03-24T05:44:27.982Z,3.40
2023-03-24T05:46:55.602Z,3.00
2023-03-24T05:49:25.569Z,3.93
2023-03-24T05:51:54.285Z,3.23
2023-03-24T05:54:26.373Z,3.60
2023-03-24T05:56:56.003Z,3.33
2023-03-24T05:59:23.501Z,3.57
2023-03-24T06:01:50.693Z,3.60
2023-03-24T06:04:17.712Z,3.00
2023-03-24T06:06:46.200Z,3.67
2023-03-24T06:30:46.793Z,3.53
2023-03-24T06:33:13.912Z,4.77
2023-03-24T06:35:40.917Z,4.33
2023-03-24T06:38:08.129Z,3.60
2023-03-24T06:40:35.570Z,4.70
2023-03-24T06:43:02.526Z,4.40
2023-03-24T06:45:31.189Z,3.90
2023-03-24T06:47:59.437Z,4.80
2023-03-24T06:50:26.596Z,4.00
2023-03-24T06:52:53.611Z,5.17
2023-03-24T06:55:20.492Z,4.03
2023-03-24T06:57:47.235Z,3.20
2023-03-24T07:00:14.281Z,4.70
2023-03-24T07:02:41.225Z,4.07
2023-03-24T07:05:10.003Z,4.43
2023-03-24T07:10:07.702Z,3.50
2023-03-24T07:12:35.277Z,3.90
2023-03-24T07:15:02.181Z,4.10
2023-03-24T07:17:29.037Z,4.40
2023-03-24T07:19:55.900Z,5.07
2023-03-24T07:22:24.026Z,4.20
2023-03-24T07:24:53.627Z,4.70
2023-03-24T07:27:21.743Z,4.63
2023-03-24T07:29:49.145Z,5.60
2023-03-24T07:32:16.031Z,5.23
2023-03-24T07:34:48.540Z,5.63
2023-03-24T07:37:18.237Z,5.57
2023-03-24T07:39:46.548Z,6.00
2023-03-24T07:42:35.466Z,4.63
2023-03-24T07:45:06.030Z,4.50
2023-03-24T07:47:51.430Z,5.40
2023-03-24T07:50:23.714Z,4.80
2023-03-24T07:52:57.980Z,4.93
2023-03-24T07:55:27.772Z,5.10
2023-03-24T07:57:57.338Z,4.70
2023-03-24T08:00:27.461Z,3.87
2023-03-24T08:02:58.010Z,4.53
2023-03-24T08:08:16.998Z,3.87
2023-03-24T08:10:45.668Z,4.13
2023-03-24T08:13:12.593Z,3.93
2023-03-24T08:15:45.206Z,3.50
2023-03-24T08:18:12.437Z,4.10
2023-03-24T08:20:42.302Z,4.17
2023-03-24T08:23:17.727Z,3.60
2023-03-24T08:26:00.558Z,4.57
2023-03-24T08:28:52.448Z,3.77
2023-03-24T08:46:36.338Z,4.17
2023-03-24T08:49:06.106Z,4.07
2023-03-24T08:51:33.186Z,3.20
2023-03-24T08:54:00.015Z,3.10
2023-03-24T08:56:29.947Z,3.73
2023-03-24T08:58:56.816Z,3.87
2023-03-24T09:01:24.238Z,3.63
2023-03-24T09:03:52.371Z,2.93
2023-03-24T09:06:41.817Z,2.80
2023-03-24T09:28:38.072Z,1.87
2023-03-24T09:31:06.770Z,1.97
2023-03-24T09:33:45.887Z,1.73
2023-03-24T09:36:28.617Z,1.50
2023-03-24T09:39:17.184Z,1.67
2023-03-24T09:41:55.265Z,2.07
2023-03-24T09:44:29.731Z,2.10
2023-03-24T09:47:09.120Z,2.30
2023-03-24T09:49:56.413Z,2.27
2023-03-24T09:52:39.890Z,2.40
2023-03-24T09:55:17.292Z,2.00
2023-03-24T09:58:05.638Z,2.27
2023-03-24T10:01:00.859Z,2.40
2023-03-24T10:03:30.386Z,2.30
2023-03-24T10:06:12.000Z,2.27
2023-03-24T10:08:46.551Z,2.10
2023-03-24T10:11:29.144Z,2.37
2023-03-24T10:14:10.592Z,2.33
2023-03-24T10:16:45.322Z,1.90
2023-03-24T10:19:21.471Z,2.20
2023-03-24T10:21:57.077Z,1.60
2023-03-24T10:24:30.034Z,1.90
2023-03-24T10:27:05.895Z,2.10
2023-03-24T10:29:38.667Z,1.83
2023-03-24T10:32:23.237Z,2.17
2023-03-24T10:35:03.124Z,2.00
2023-03-24T10:37:31.000Z,2.07
2023-03-24T10:40:17.541Z,1.93
2023-03-24T10:42:45.530Z,2.37
2023-03-24T10:45:14.743Z,1.67
2023-03-24T10:47:43.792Z,1.77
2023-03-24T10:50:15.217Z,2.30
2023-03-24T10:52:44.325Z,2.10
2023-03-24T10:55:16.324Z,1.93
2023-03-24T10:57:44.821Z,2.40
2023-03-24T11:00:20.529Z,2.10
2023-03-24T11:02:57.590Z,2.17
2023-03-24T11:05:29.041Z,2.60
2023-03-24T11:08:00.605Z,1.97
2023-03-24T11:10:27.726Z,2.50
2023-03-24T11:13:01.999Z,2.00
2023-03-24T11:15:30.842Z,2.03
2023-03-24T11:18:00.726Z,1.83
2023-03-24T11:20:32.357Z,2.20
2023-03-24T11:23:01.736Z,2.37
2023-03-24T11:25:32.476Z,2.30
2023-03-24T11:28:02.742Z,2.10
2023-03-24T11:30:34.629Z,1.70
2023-03-24T11:33:03.692Z,2.30
2023-03-24T11:35:40.914Z,2.27
2023-03-24T11:38:08.878Z,2.00
2023-03-24T11:40:36.264Z,2.37
2023-03-24T11:43:04.817Z,2.97
2023-03-24T11:45:37.776Z,2.47
2023-03-24T11:51:28.181Z,1.83
2023-03-24T11:57:03.237Z,1.30
2023-03-24T11:59:37.365Z,1.60
2023-03-24T12:02:17.834Z,1.63
2023-03-24T12:05:09.765Z,2.60
2023-03-24T12:08:00.000Z,2.30
2023-03-24T12:10:55.434Z,2.20
2023-03-24T12:13:33.272Z,1.80
2023-03-24T12:16:19.154Z,2.20
2023-03-24T12:19:08.506Z,2.50
2023-03-24T12:21:50.450Z,2.43
2023-03-24T12:24:28.510Z,2.40
2023-03-24T12:26:58.816Z,2.20
2023-03-24T12:29:45.216Z,1.83
2023-03-24T12:32:36.389Z,2.33
2023-03-24T12:35:28.803Z,2.53
2023-03-24T12:38:08.794Z,2.30
2023-03-24T12:40:57.048Z,2.77
2023-03-24T12:43:34.537Z,2.40
2023-03-24T12:46:09.710Z,2.30
2023-03-24T12:48:51.487Z,1.93
2023-03-24T12:51:31.031Z,2.13
2023-03-24T12:54:12.170Z,2.20
2023-03-24T12:56:45.443Z,2.20
2023-03-24T12:59:17.425Z,2.67
2023-03-24T13:01:46.748Z,3.37
2023-03-24T13:04:18.811Z,2.77
2023-03-24T13:06:50.241Z,2.67
2023-03-24T13:09:30.521Z,1.87
2023-03-24T13:12:07.821Z,2.83
2023-03-24T13:14:48.278Z,2.43
2023-03-24T13:17:23.468Z,3.10
2023-03-24T13:19:54.827Z,3.00
2023-03-24T13:22:31.839Z,2.77
2023-03-24T13:25:03.115Z,2.47
2023-03-24T13:27:36.463Z,2.90
2023-03-24T13:30:29.529Z,2.53
2023-03-24T13:33:02.620Z,3.27
2023-03-24T13:35:55.494Z,3.40
2023-03-24T13:38:35.786Z,3.80
2023-03-24T13:41:06.660Z,3.93
2023-03-24T13:43:38.502Z,3.70
2023-03-24T13:46:11.660Z,4.10
2023-03-24T13:48:39.998Z,3.60
2023-03-24T13:51:16.661Z,3.97
2023-03-24T13:53:45.920Z,3.70
2023-03-24T13:56:21.960Z,3.10
2023-03-24T13:59:06.637Z,3.17
2023-03-24T14:01:36.737Z,3.23
2023-03-24T14:04:27.204Z,2.47
2023-03-24T14:06:55.080Z,3.30
2023-03-24T14:09:24.068Z,2.90
2023-03-24T14:12:19.995Z,2.37
2023-03-24T14:15:15.031Z,2.37
2023-03-24T14:17:44.749Z,3.00
2023-03-24T14:20:23.761Z,2.77
2023-03-24T14:22:50.995Z,2.37
2023-03-24T14:25:23.842Z,2.93
2023-03-24T14:27:52.032Z,2.50
2023-03-24T14:30:25.889Z,2.57
2023-03-24T14:32:55.393Z,2.30
2023-03-24T14:35:36.393Z,2.80
2023-03-24T14:38:05.334Z,2.97
2023-03-24T14:40:36.472Z,2.70
2023-03-24T14:43:15.370Z,2.93
2023-03-24T14:46:01.230Z,3.17
2023-03-24T14:48:37.578Z,3.47
2023-03-24T14:51:15.280Z,3.53
2023-03-24T14:53:42.094Z,3.37
2023-03-24T14:56:14.939Z,2.90
2023-03-24T14:58:43.958Z,3.23
2023-03-24T15:01:13.009Z,3.57
2023-03-24T15:03:44.847Z,2.73
2023-03-24T15:06:16.962Z,2.90
2023-03-24T15:08:50.298Z,3.87
2023-03-24T15:11:20.530Z,2.90
2023-03-24T15:13:50.668Z,3.50
2023-03-24T15:16:22.401Z,3.10
2023-03-24T15:19:00.644Z,2.40
2023-03-24T15:21:32.570Z,2.97
2023-03-24T15:23:59.953Z,2.37
2023-03-24T15:26:29.608Z,2.83
2023-03-24T15:28:58.051Z,2.50
2023-03-24T15:31:27.141Z,2.63
2023-03-24T15:33:53.799Z,2.80
2023-03-24T15:36:22.662Z,2.93
2023-03-24T15:38:51.159Z,2.53
2023-03-24T15:41:20.444Z,2.50
2023-03-24T15:43:50.290Z,2.93
2023-03-24T15:46:24.147Z,3.03
2023-03-24T15:48:53.212Z,2.60
2023-03-24T15:51:20.245Z,2.43
2023-03-24T15:53:54.773Z,2.53
2023-03-24T15:56:26.112Z,2.53
2023-03-24T15:58:55.936Z,3.03
2023-03-24T16:01:26.450Z,2.80
2023-03-24T16:03:55.583Z,3.07
2023-03-24T16:06:27.389Z,2.73
2023-03-24T16:08:54.226Z,2.47
2023-03-24T16:11:24.383Z,2.43
2023-03-24T16:13:54.303Z,2.87
2023-03-24T16:16:28.058Z,3.37
2023-03-24T16:18:57.089Z,2.40
2023-03-24T16:22:00.550Z,2.60
2023-03-24T16:27:16.214Z,1.90
2023-03-24T16:29:43.172Z,2.50
2023-03-24T16:32:10.524Z,2.60
2023-03-24T16:34:44.374Z,2.00
2023-03-24T16:37:11.364Z,2.30
2023-03-24T16:39:38.361Z,2.57
2023-03-24T16:42:05.328Z,1.87
2023-03-24T16:44:32.083Z,2.37
2023-03-24T16:46:59.507Z,2.73
2023-03-24T16:49:26.411Z,2.13
2023-03-24T16:51:54.795Z,2.83
2023-03-24T16:54:21.561Z,2.27
2023-03-24T16:56:48.390Z,2.33
2023-03-24T16:59:15.141Z,2.00
2023-03-24T17:01:43.287Z,1.80
2023-03-24T17:04:15.952Z,2.70
2023-03-24T17:06:44.491Z,2.83
2023-03-24T17:09:12.782Z,2.30
2023-03-24T17:11:41.456Z,2.23
2023-03-24T17:14:08.634Z,2.03
2023-03-24T17:16:37.194Z,2.30
2023-03-24T17:19:03.999Z,1.80
2023-03-24T17:21:31.976Z,2.87
2023-03-24T17:23:58.726Z,2.17
2023-03-24T17:26:26.807Z,1.77
2023-03-24T17:28:53.497Z,1.90
2023-03-24T17:31:20.228Z,2.70
2023-03-24T17:33:46.860Z,2.10
2023-03-24T17:36:14.910Z,2.10
2023-03-24T17:38:41.862Z,2.63
2023-03-24T17:41:08.527Z,2.10
2023-03-24T17:43:36.734Z,2.10
2023-03-24T17:46:03.612Z,2.50
2023-03-24T17:48:30.618Z,1.73
2023-03-24T17:50:57.574Z,2.10
2023-03-24T17:53:24.966Z,2.40
2023-03-24T17:55:51.661Z,2.17
2023-03-24T17:58:18.490Z,2.73
2023-03-24T18:00:46.643Z,2.60
2023-03-24T18:03:13.775Z,1.87
2023-03-24T18:05:40.557Z,1.70
2023-03-24T18:08:07.641Z,2.37
2023-03-24T18:10:35.310Z,2.40
2023-03-24T18:13:02.043Z,1.70
2023-03-24T18:15:28.768Z,1.20
2023-03-24T18:17:57.533Z,1.53
2023-03-24T18:20:24.732Z,1.20
2023-03-24T18:22:51.683Z,3.47
2023-03-24T18:25:18.425Z,1.30
2023-03-24T18:27:45.120Z,1.17
2023-03-24T18:30:13.614Z,1.27
2023-03-24T18:32:40.411Z,1.83
2023-03-24T18:35:10.525Z,1.93
2023-03-24T18:37:37.745Z,1.40
2023-03-24T18:40:05.782Z,2.30
2023-03-24T18:42:32.514Z,1.60
2023-03-24T18:44:59.193Z,2.47
2023-03-24T18:47:25.995Z,2.50
2023-03-24T18:49:52.673Z,1.93
2023-03-24T18:52:20.908Z,2.63
2023-03-24T18:54:47.721Z,3.03
2023-03-24T18:57:14.822Z,1.90
2023-03-24T18:59:41.533Z,2.03
2023-03-24T19:02:10.646Z,2.43
2023-03-24T19:04:37.465Z,2.27
2023-03-24T19:07:04.134Z,3.17
2023-03-24T19:09:32.440Z,2.73
2023-03-24T19:11:59.149Z,2.10
2023-03-24T19:14:25.980Z,2.70
2023-03-24T19:16:52.705Z,3.10
2023-03-24T19:19:19.485Z,1.80
2023-03-24T19:21:49.553Z,3.07
2023-03-24T19:24:16.311Z,2.30
2023-03-24T19:26:44.304Z,2.23
2023-03-24T19:29:10.953Z,2.33
2023-03-24T19:31:37.799Z,2.67
2023-03-24T19:34:04.537Z,2.50
2023-03-24T19:36:31.408Z,2.77
2023-03-24T19:38:58.111Z,3.03
2023-03-24T19:41:24.986Z,2.10
2023-03-24T19:43:53.689Z,2.80
2023-03-24T19:46:20.422Z,2.97
2023-03-24T19:48:47.482Z,2.20
2023-03-24T19:51:14.412Z,2.57
2023-03-24T19:53:41.179Z,1.37
2023-03-24T19:56:08.372Z,2.20
2023-03-24T19:58:35.405Z,1.53
2023-03-24T20:01:03.943Z,1.90
2023-03-24T20:03:31.035Z,2.83
2023-03-24T20:06:04.015Z,5.47
2023-03-24T20:08:31.065Z,3.63
2023-03-24T20:10:57.788Z,1.53
2023-03-24T20:13:24.574Z,2.00
2023-03-24T20:15:51.440Z,1.70
2023-03-24T20:18:19.761Z,1.90
2023-03-24T20:20:46.545Z,1.27
2023-03-24T20:23:13.232Z,1.40
2023-03-24T20:25:41.689Z,1.93
2023-03-24T20:28:08.522Z,1.50
2023-03-24T20:30:35.251Z,1.47
2023-03-24T20:33:01.917Z,1.40
2023-03-24T20:35:29.968Z,1.47
2023-03-24T20:37:56.748Z,1.17
2023-03-24T20:40:23.505Z,1.67
2023-03-24T20:42:50.538Z,1.33
2023-03-24T20:45:17.287Z,0.90
2023-03-24T20:47:44.057Z,1.30
2023-03-24T20:50:11.194Z,1.60
2023-03-24T20:52:39.213Z,1.63
2023-03-24T20:55:06.632Z,1.53
2023-03-24T20:57:33.703Z,1.43
2023-03-24T21:00:00.616Z,2.07
2023-03-24T21:02:27.594Z,2.17
2023-03-24T21:04:54.266Z,2.27
2023-03-24T21:07:20.905Z,1.90
2023-03-24T21:09:48.938Z,1.70
2023-03-24T21:12:15.612Z,1.80
2023-03-24T21:14:42.319Z,1.67
2023-03-24T21:17:09.115Z,1.53
2023-03-24T21:19:36.164Z,1.67
2023-03-24T21:22:03.225Z,1.30
2023-03-24T21:24:30.374Z,1.27
2023-03-24T21:26:58.976Z,1.53
2023-03-24T21:29:25.915Z,1.40
2023-03-24T21:31:52.980Z,1.40
2023-03-24T21:34:20.686Z,1.50
2023-03-24T21:36:47.987Z,1.40
2023-03-24T21:39:15.237Z,2.00
2023-03-24T21:41:42.528Z,1.33
2023-03-24T21:44:11.070Z,1.50
2023-03-24T21:46:37.872Z,1.43
2023-03-24T21:49:04.933Z,1.40
2023-03-24T21:51:34.275Z,1.80
2023-03-24T21:54:01.634Z,1.43
2023-03-24T21:56:29.122Z,1.53
2023-03-24T21:58:56.333Z,1.57
2023-03-24T22:01:25.172Z,1.83
2023-03-24T22:07:15.154Z,1.33
2023-03-24T22:09:42.261Z,1.50
2023-03-24T22:12:09.615Z,1.67
2023-03-24T22:14:36.585Z,1.70
2023-03-24T22:17:04.886Z,1.50
2023-03-24T22:19:31.981Z,1.53
2023-03-24T22:21:59.221Z,1.93
2023-03-24T22:24:26.420Z,1.40
2023-03-24T22:26:53.828Z,1.50
2023-03-24T22:29:21.165Z,1.87
2023-03-24T22:31:48.324Z,1.90
2023-03-24T22:34:16.626Z,2.00
2023-03-24T22:36:44.283Z,2.10
2023-03-24T22:39:11.305Z,2.60
2023-03-24T22:41:38.248Z,2.17
2023-03-24T22:44:05.587Z,2.10
2023-03-24T22:46:32.679Z,1.90
2023-03-24T22:49:00.169Z,1.80
2023-03-24T22:51:28.829Z,1.93
2023-03-24T22:53:56.336Z,1.77
2023-03-24T22:56:23.829Z,1.20
2023-03-24T22:58:50.932Z,1.47
2023-03-24T23:01:17.684Z,1.57
2023-03-24T23:03:44.689Z,1.70
2023-03-24T23:06:11.545Z,1.50
2023-03-24T23:08:39.648Z,1.43
2023-03-24T23:11:07.520Z,1.70
2023-03-24T23:13:34.275Z,1.40
2023-03-24T23:16:01.068Z,1.10
2023-03-24T23:18:28.761Z,1.13
2023-03-24T23:21:02.240Z,1.20
2023-03-24T23:23:29.034Z,1.40
2023-03-24T23:25:57.080Z,1.03
2023-03-24T23:28:23.834Z,1.43
2023-03-24T23:30:50.528Z,1.40
2023-03-24T23:33:17.474Z,1.40
2023-03-24T23:35:44.263Z,1.43
2023-03-24T23:38:10.936Z,1.00
2023-03-24T23:40:37.759Z,1.40
2023-03-24T23:43:05.830Z,1.07
2023-03-24T23:45:32.574Z,0.90
2023-03-24T23:47:59.504Z,0.77
2023-03-24T23:50:26.336Z,1.30
2023-03-24T23:52:53.066Z,0.97
2023-03-24T23:55:19.763Z,1.77
2023-03-24T23:57:47.034Z,3.17
